sensor_id;sensor_type;location;lat;lon;timestamp;temperature;humidity
41644;DHT22;44236;48.098;11.582;2024-03-06T00:00:54;20.40;44.20
41644;DHT22;44236;48.098;11.582;2024-03-06T00:03:19;20.40;44.20
41644;DHT22;44236;48.098;11.582;2024-03-06T00:05:45;20.40;44.10
41644;DHT22;44236;48.098;11.582;2024-03-06T00:08:11;20.40;44.80
41644;DHT22;44236;48.098;11.582;2024-03-06T00:10:36;20.30;44.20
41644;DHT22;44236;48.098;11.582;2024-03-06T00:13:02;20.40;44.30
41644;DHT22;44236;48.098;11.582;2024-03-06T00:15:27;20.30;44.10
41644;DHT22;44236;48.098;11.582;2024-03-06T00:17:53;20.30;44.10
41644;DHT22;44236;48.098;11.582;2024-03-06T00:20:18;20.30;44.30
41644;DHT22;44236;48.098;11.582;2024-03-06T00:22:44;20.30;44.30
41644;DHT22;44236;48.098;11.582;2024-03-06T00:25:10;20.30;44.30
41644;DHT22;44236;48.098;11.582;2024-03-06T00:27:35;20.30;44.30
41644;DHT22;44236;48.098;11.582;2024-03-06T00:30:02;20.30;44.70
41644;DHT22;44236;48.098;11.582;2024-03-06T00:32:27;20.30;44.80
41644;DHT22;44236;48.098;11.582;2024-03-06T00:34:54;20.30;44.40
41644;DHT22;44236;48.098;11.582;2024-03-06T00:37:19;20.20;44.30
41644;DHT22;44236;48.098;11.582;2024-03-06T00:39:45;20.20;44.30
41644;DHT22;44236;48.098;11.582;2024-03-06T00:42:10;20.20;44.30
41644;DHT22;44236;48.098;11.582;2024-03-06T00:44:39;20.20;44.30
41644;DHT22;44236;48.098;11.582;2024-03-06T00:47:04;20.20;44.50
41644;DHT22;44236;48.098;11.582;2024-03-06T00:49:30;20.10;44.30
41644;DHT22;44236;48.098;11.582;2024-03-06T00:51:56;20.20;44.50
41644;DHT22;44236;48.098;11.582;2024-03-06T00:54:22;20.10;44.30
41644;DHT22;44236;48.098;11.582;2024-03-06T00:56:47;20.10;44.40
41644;DHT22;44236;48.098;11.582;2024-03-06T00:59:13;20.10;44.40
41644;DHT22;44236;48.098;11.582;2024-03-06T01:01:38;20.10;44.40
41644;DHT22;44236;48.098;11.582;2024-03-06T01:04:04;20.10;44.50
41644;DHT22;44236;48.098;11.582;2024-03-06T01:06:30;20.10;44.40
41644;DHT22;44236;48.098;11.582;2024-03-06T01:08:56;20.10;44.40
41644;DHT22;44236;48.098;11.582;2024-03-06T01:11:22;20.00;44.50
41644;DHT22;44236;48.098;11.582;2024-03-06T01:13:48;20.10;44.50
41644;DHT22;44236;48.098;11.582;2024-03-06T01:16:13;20.00;44.40
41644;DHT22;44236;48.098;11.582;2024-03-06T01:18:39;20.00;44.40
41644;DHT22;44236;48.098;11.582;2024-03-06T01:21:05;20.00;44.40
41644;DHT22;44236;48.098;11.582;2024-03-06T01:23:30;20.00;44.50
41644;DHT22;44236;48.098;11.582;2024-03-06T01:25:56;20.00;44.60
41644;DHT22;44236;48.098;11.582;2024-03-06T01:28:22;20.00;44.60
41644;DHT22;44236;48.098;11.582;2024-03-06T01:30:47;20.00;44.60
41644;DHT22;44236;48.098;11.582;2024-03-06T01:33:13;20.00;44.60
41644;DHT22;44236;48.098;11.582;2024-03-06T01:35:38;20.00;44.60
41644;DHT22;44236;48.098;11.582;2024-03-06T01:38:04;19.90;44.60
41644;DHT22;44236;48.098;11.582;2024-03-06T01:40:31;19.90;44.60
41644;DHT22;44236;48.098;11.582;2024-03-06T01:42:56;20.00;44.70
41644;DHT22;44236;48.098;11.582;2024-03-06T01:45:22;19.90;44.60
41644;DHT22;44236;48.098;11.582;2024-03-06T01:47:48;19.90;44.50
41644;DHT22;44236;48.098;11.582;2024-03-06T01:50:13;19.90;44.60
41644;DHT22;44236;48.098;11.582;2024-03-06T01:52:40;19.90;44.60
41644;DHT22;44236;48.098;11.582;2024-03-06T01:55:07;19.90;44.60
41644;DHT22;44236;48.098;11.582;2024-03-06T01:57:34;19.90;44.50
41644;DHT22;44236;48.098;11.582;2024-03-06T02:00:02;19.90;44.60
41644;DHT22;44236;48.098;11.582;2024-03-06T02:02:28;19.90;44.70
41644;DHT22;44236;48.098;11.582;2024-03-06T02:04:55;19.90;44.60
41644;DHT22;44236;48.098;11.582;2024-03-06T02:07:24;19.90;44.70
41644;DHT22;44236;48.098;11.582;2024-03-06T02:09:49;19.80;44.60
41644;DHT22;44236;48.098;11.582;2024-03-06T02:12:15;19.90;44.60
41644;DHT22;44236;48.098;11.582;2024-03-06T02:14:41;19.80;44.60
41644;DHT22;44236;48.098;11.582;2024-03-06T02:17:07;19.80;44.60
41644;DHT22;44236;48.098;11.582;2024-03-06T02:19:39;19.80;44.60
41644;DHT22;44236;48.098;11.582;2024-03-06T02:22:06;19.80;44.60
41644;DHT22;44236;48.098;11.582;2024-03-06T02:24:32;19.80;44.50
41644;DHT22;44236;48.098;11.582;2024-03-06T02:26:57;19.80;44.60
41644;DHT22;44236;48.098;11.582;2024-03-06T02:29:24;19.80;44.60
41644;DHT22;44236;48.098;11.582;2024-03-06T02:31:49;19.80;44.50
41644;DHT22;44236;48.098;11.582;2024-03-06T02:34:15;19.80;44.60
41644;DHT22;44236;48.098;11.582;2024-03-06T02:36:40;19.80;44.60
41644;DHT22;44236;48.098;11.582;2024-03-06T02:39:06;19.80;44.60
41644;DHT22;44236;48.098;11.582;2024-03-06T02:41:35;19.80;44.60
41644;DHT22;44236;48.098;11.582;2024-03-06T02:44:01;19.80;45.00
41644;DHT22;44236;48.098;11.582;2024-03-06T02:46:27;19.70;44.60
41644;DHT22;44236;48.098;11.582;2024-03-06T02:48:52;19.80;44.60
41644;DHT22;44236;48.098;11.582;2024-03-06T02:51:21;19.80;44.60
41644;DHT22;44236;48.098;11.582;2024-03-06T02:53:47;19.80;44.60
41644;DHT22;44236;48.098;11.582;2024-03-06T02:56:20;19.70;44.50
41644;DHT22;44236;48.098;11.582;2024-03-06T02:58:46;19.70;44.50
41644;DHT22;44236;48.098;11.582;2024-03-06T03:01:13;19.70;44.50
41644;DHT22;44236;48.098;11.582;2024-03-06T03:03:42;19.70;44.50
41644;DHT22;44236;48.098;11.582;2024-03-06T03:06:08;19.70;44.50
41644;DHT22;44236;48.098;11.582;2024-03-06T03:08:33;19.70;44.70
41644;DHT22;44236;48.098;11.582;2024-03-06T03:10:59;19.70;44.50
41644;DHT22;44236;48.098;11.582;2024-03-06T03:13:25;19.70;44.60
41644;DHT22;44236;48.098;11.582;2024-03-06T03:15:50;19.70;44.60
41644;DHT22;44236;48.098;11.582;2024-03-06T03:18:16;19.70;44.60
41644;DHT22;44236;48.098;11.582;2024-03-06T03:20:42;19.60;44.60
41644;DHT22;44236;48.098;11.582;2024-03-06T03:23:08;19.70;44.50
41644;DHT22;44236;48.098;11.582;2024-03-06T03:25:37;19.60;44.50
41644;DHT22;44236;48.098;11.582;2024-03-06T03:28:03;19.60;44.60
41644;DHT22;44236;48.098;11.582;2024-03-06T03:30:29;19.60;44.60
41644;DHT22;44236;48.098;11.582;2024-03-06T03:32:54;19.60;45.10
41644;DHT22;44236;48.098;11.582;2024-03-06T03:35:20;19.60;44.90
41644;DHT22;44236;48.098;11.582;2024-03-06T03:37:51;19.60;44.60
41644;DHT22;44236;48.098;11.582;2024-03-06T03:40:17;19.60;45.30
41644;DHT22;44236;48.098;11.582;2024-03-06T03:42:44;19.60;44.70
41644;DHT22;44236;48.098;11.582;2024-03-06T03:45:09;19.60;44.70
41644;DHT22;44236;48.098;11.582;2024-03-06T03:47:35;19.60;44.60
41644;DHT22;44236;48.098;11.582;2024-03-06T03:50:01;19.60;44.60
41644;DHT22;44236;48.098;11.582;2024-03-06T03:52:26;19.50;44.60
41644;DHT22;44236;48.098;11.582;2024-03-06T03:54:52;19.50;44.70
41644;DHT22;44236;48.098;11.582;2024-03-06T03:57:20;19.50;44.60
41644;DHT22;44236;48.098;11.582;2024-03-06T03:59:45;19.60;44.70
41644;DHT22;44236;48.098;11.582;2024-03-06T04:02:11;19.60;44.50
41644;DHT22;44236;48.098;11.582;2024-03-06T04:04:37;19.60;44.40
41644;DHT22;44236;48.098;11.582;2024-03-06T04:07:02;19.60;44.40
41644;DHT22;44236;48.098;11.582;2024-03-06T04:09:28;19.60;44.50
41644;DHT22;44236;48.098;11.582;2024-03-06T04:11:54;19.70;44.50
41644;DHT22;44236;48.098;11.582;2024-03-06T04:14:20;19.70;44.50
41644;DHT22;44236;48.098;11.582;2024-03-06T04:16:46;19.70;44.50
41644;DHT22;44236;48.098;11.582;2024-03-06T04:19:12;19.80;44.50
41644;DHT22;44236;48.098;11.582;2024-03-06T04:21:41;19.80;44.50
41644;DHT22;44236;48.098;11.582;2024-03-06T04:24:07;19.80;44.50
41644;DHT22;44236;48.098;11.582;2024-03-06T04:26:33;19.80;44.50
41644;DHT22;44236;48.098;11.582;2024-03-06T04:28:59;19.80;44.60
41644;DHT22;44236;48.098;11.582;2024-03-06T04:31:24;19.80;44.50
41644;DHT22;44236;48.098;11.582;2024-03-06T04:33:50;19.80;44.50
41644;DHT22;44236;48.098;11.582;2024-03-06T04:36:16;19.80;44.50
41644;DHT22;44236;48.098;11.582;2024-03-06T04:38:42;19.80;44.50
41644;DHT22;44236;48.098;11.582;2024-03-06T04:41:08;19.80;44.40
41644;DHT22;44236;48.098;11.582;2024-03-06T04:43:33;19.80;44.40
41644;DHT22;44236;48.098;11.582;2024-03-06T04:45:59;19.80;44.40
41644;DHT22;44236;48.098;11.582;2024-03-06T04:48:25;19.80;44.40
41644;DHT22;44236;48.098;11.582;2024-03-06T04:50:51;19.80;44.30
41644;DHT22;44236;48.098;11.582;2024-03-06T04:53:16;19.80;44.30
41644;DHT22;44236;48.098;11.582;2024-03-06T04:55:42;19.80;44.70
41644;DHT22;44236;48.098;11.582;2024-03-06T04:58:08;19.90;44.30
41644;DHT22;44236;48.098;11.582;2024-03-06T05:00:34;19.80;44.20
41644;DHT22;44236;48.098;11.582;2024-03-06T05:02:59;19.90;44.20
41644;DHT22;44236;48.098;11.582;2024-03-06T05:05:25;19.90;44.10
41644;DHT22;44236;48.098;11.582;2024-03-06T05:07:50;19.90;44.20
41644;DHT22;44236;48.098;11.582;2024-03-06T05:10:17;19.90;44.10
41644;DHT22;44236;48.098;11.582;2024-03-06T05:12:42;19.90;44.10
41644;DHT22;44236;48.098;11.582;2024-03-06T05:15:11;19.90;44.00
41644;DHT22;44236;48.098;11.582;2024-03-06T05:17:37;19.90;43.90
41644;DHT22;44236;48.098;11.582;2024-03-06T05:20:03;19.90;44.00
41644;DHT22;44236;48.098;11.582;2024-03-06T05:22:32;19.90;43.90
41644;DHT22;44236;48.098;11.582;2024-03-06T05:24:57;19.90;43.90
41644;DHT22;44236;48.098;11.582;2024-03-06T05:27:24;19.90;43.90
41644;DHT22;44236;48.098;11.582;2024-03-06T05:29:50;20.00;43.90
41644;DHT22;44236;48.098;11.582;2024-03-06T05:32:15;19.90;43.80
41644;DHT22;44236;48.098;11.582;2024-03-06T05:34:41;20.00;43.70
41644;DHT22;44236;48.098;11.582;2024-03-06T05:37:07;20.00;43.70
41644;DHT22;44236;48.098;11.582;2024-03-06T05:39:32;20.00;43.50
41644;DHT22;44236;48.098;11.582;2024-03-06T05:42:03;20.00;43.80
41644;DHT22;44236;48.098;11.582;2024-03-06T05:44:33;20.00;43.50
41644;DHT22;44236;48.098;11.582;2024-03-06T05:46:59;20.10;43.70
41644;DHT22;44236;48.098;11.582;2024-03-06T05:49:26;20.10;43.60
41644;DHT22;44236;48.098;11.582;2024-03-06T05:51:52;20.10;43.60
41644;DHT22;44236;48.098;11.582;2024-03-06T05:54:19;20.10;43.50
41644;DHT22;44236;48.098;11.582;2024-03-06T05:56:45;20.10;43.80
41644;DHT22;44236;48.098;11.582;2024-03-06T05:59:10;20.10;43.70
41644;DHT22;44236;48.098;11.582;2024-03-06T06:01:36;20.10;43.60
41644;DHT22;44236;48.098;11.582;2024-03-06T06:04:01;20.10;43.60
41644;DHT22;44236;48.098;11.582;2024-03-06T06:06:27;20.10;43.50
41644;DHT22;44236;48.098;11.582;2024-03-06T06:08:53;20.10;43.60
41644;DHT22;44236;48.098;11.582;2024-03-06T06:11:19;20.10;43.60
41644;DHT22;44236;48.098;11.582;2024-03-06T06:13:44;20.10;43.60
41644;DHT22;44236;48.098;11.582;2024-03-06T06:16:12;20.10;43.70
41644;DHT22;44236;48.098;11.582;2024-03-06T06:18:39;20.20;43.80
41644;DHT22;44236;48.098;11.582;2024-03-06T06:21:07;20.20;43.80
41644;DHT22;44236;48.098;11.582;2024-03-06T06:23:34;20.20;43.80
41644;DHT22;44236;48.098;11.582;2024-03-06T06:25:59;20.20;43.90
41644;DHT22;44236;48.098;11.582;2024-03-06T06:28:25;20.20;43.90
41644;DHT22;44236;48.098;11.582;2024-03-06T06:30:50;20.20;43.80
41644;DHT22;44236;48.098;11.582;2024-03-06T06:33:21;20.20;43.80
41644;DHT22;44236;48.098;11.582;2024-03-06T06:35:47;20.20;43.80
41644;DHT22;44236;48.098;11.582;2024-03-06T06:38:13;20.20;43.60
41644;DHT22;44236;48.098;11.582;2024-03-06T06:40:38;20.20;43.90
41644;DHT22;44236;48.098;11.582;2024-03-06T06:43:06;20.20;43.80
41644;DHT22;44236;48.098;11.582;2024-03-06T06:45:31;20.30;43.70
41644;DHT22;44236;48.098;11.582;2024-03-06T06:47:57;20.30;43.80
41644;DHT22;44236;48.098;11.582;2024-03-06T06:50:23;20.30;43.60
41644;DHT22;44236;48.098;11.582;2024-03-06T06:52:51;20.30;43.80
41644;DHT22;44236;48.098;11.582;2024-03-06T06:55:17;20.30;43.70
41644;DHT22;44236;48.098;11.582;2024-03-06T06:57:42;20.30;43.90
41644;DHT22;44236;48.098;11.582;2024-03-06T07:00:09;20.30;43.80
41644;DHT22;44236;48.098;11.582;2024-03-06T07:02:39;20.30;44.20
41644;DHT22;44236;48.098;11.582;2024-03-06T07:05:05;20.30;44.10
41644;DHT22;44236;48.098;11.582;2024-03-06T07:07:31;20.30;44.00
41644;DHT22;44236;48.098;11.582;2024-03-06T07:09:56;20.30;43.70
41644;DHT22;44236;48.098;11.582;2024-03-06T07:12:22;20.40;43.50
41644;DHT22;44236;48.098;11.582;2024-03-06T07:14:47;20.30;43.70
41644;DHT22;44236;48.098;11.582;2024-03-06T07:17:13;20.30;43.80
41644;DHT22;44236;48.098;11.582;2024-03-06T07:19:39;20.30;43.80
41644;DHT22;44236;48.098;11.582;2024-03-06T07:22:05;20.30;44.00
41644;DHT22;44236;48.098;11.582;2024-03-06T07:24:31;20.30;43.70
41644;DHT22;44236;48.098;11.582;2024-03-06T07:26:56;20.30;43.90
41644;DHT22;44236;48.098;11.582;2024-03-06T07:29:22;20.30;43.30
41644;DHT22;44236;48.098;11.582;2024-03-06T07:31:48;20.40;43.70
41644;DHT22;44236;48.098;11.582;2024-03-06T07:34:14;20.40;43.70
41644;DHT22;44236;48.098;11.582;2024-03-06T07:36:43;20.40;43.70
41644;DHT22;44236;48.098;11.582;2024-03-06T07:39:08;20.40;43.90
41644;DHT22;44236;48.098;11.582;2024-03-06T07:41:34;20.40;43.80
41644;DHT22;44236;48.098;11.582;2024-03-06T07:44:00;20.40;43.80
41644;DHT22;44236;48.098;11.582;2024-03-06T07:46:26;20.40;44.00
41644;DHT22;44236;48.098;11.582;2024-03-06T07:48:52;20.40;44.10
41644;DHT22;44236;48.098;11.582;2024-03-06T07:51:17;20.40;44.10
41644;DHT22;44236;48.098;11.582;2024-03-06T07:53:43;20.40;44.50
41644;DHT22;44236;48.098;11.582;2024-03-06T07:56:12;20.40;44.50
41644;DHT22;44236;48.098;11.582;2024-03-06T07:58:38;20.40;45.10
41644;DHT22;44236;48.098;11.582;2024-03-06T08:01:04;20.40;44.60
41644;DHT22;44236;48.098;11.582;2024-03-06T08:03:29;20.40;44.40
41644;DHT22;44236;48.098;11.582;2024-03-06T08:05:55;20.40;44.60
41644;DHT22;44236;48.098;11.582;2024-03-06T08:08:21;20.40;44.60
41644;DHT22;44236;48.098;11.582;2024-03-06T08:10:47;20.40;44.70
41644;DHT22;44236;48.098;11.582;2024-03-06T08:13:13;20.40;44.60
41644;DHT22;44236;48.098;11.582;2024-03-06T08:15:39;20.40;44.30
41644;DHT22;44236;48.098;11.582;2024-03-06T08:18:06;20.40;44.40
41644;DHT22;44236;48.098;11.582;2024-03-06T08:20:31;20.40;44.40
41644;DHT22;44236;48.098;11.582;2024-03-06T08:22:57;20.40;44.10
41644;DHT22;44236;48.098;11.582;2024-03-06T08:25:23;20.40;44.50
41644;DHT22;44236;48.098;11.582;2024-03-06T08:27:49;20.40;44.40
41644;DHT22;44236;48.098;11.582;2024-03-06T08:30:15;20.40;44.40
41644;DHT22;44236;48.098;11.582;2024-03-06T08:32:41;20.40;44.30
41644;DHT22;44236;48.098;11.582;2024-03-06T08:35:10;20.40;44.80
41644;DHT22;44236;48.098;11.582;2024-03-06T08:37:40;20.40;44.60
41644;DHT22;44236;48.098;11.582;2024-03-06T08:40:07;20.40;44.50
41644;DHT22;44236;48.098;11.582;2024-03-06T08:42:43;20.30;44.10
41644;DHT22;44236;48.098;11.582;2024-03-06T08:45:09;20.40;44.60
41644;DHT22;44236;48.098;11.582;2024-03-06T08:47:36;20.40;44.50
41644;DHT22;44236;48.098;11.582;2024-03-06T08:50:02;20.30;44.50
41644;DHT22;44236;48.098;11.582;2024-03-06T08:52:28;20.30;44.50
41644;DHT22;44236;48.098;11.582;2024-03-06T08:54:54;20.30;44.60
41644;DHT22;44236;48.098;11.582;2024-03-06T08:57:19;20.30;44.30
41644;DHT22;44236;48.098;11.582;2024-03-06T08:59:49;20.20;44.20
41644;DHT22;44236;48.098;11.582;2024-03-06T09:02:17;20.30;43.30
41644;DHT22;44236;48.098;11.582;2024-03-06T09:04:44;20.30;43.20
41644;DHT22;44236;48.098;11.582;2024-03-06T09:07:10;20.20;43.00
41644;DHT22;44236;48.098;11.582;2024-03-06T09:09:36;20.20;42.40
41644;DHT22;44236;48.098;11.582;2024-03-06T09:12:06;20.10;42.70
41644;DHT22;44236;48.098;11.582;2024-03-06T09:14:32;20.10;42.90
41644;DHT22;44236;48.098;11.582;2024-03-06T09:16:58;20.10;42.40
41644;DHT22;44236;48.098;11.582;2024-03-06T09:19:24;20.00;41.00
41644;DHT22;44236;48.098;11.582;2024-03-06T09:21:49;20.00;41.10
41644;DHT22;44236;48.098;11.582;2024-03-06T09:24:15;20.00;42.00
41644;DHT22;44236;48.098;11.582;2024-03-06T09:26:41;20.00;42.80
41644;DHT22;44236;48.098;11.582;2024-03-06T09:29:06;20.10;43.00
41644;DHT22;44236;48.098;11.582;2024-03-06T09:31:32;20.10;42.90
41644;DHT22;44236;48.098;11.582;2024-03-06T09:33:58;20.10;43.10
41644;DHT22;44236;48.098;11.582;2024-03-06T09:36:23;20.20;43.20
41644;DHT22;44236;48.098;11.582;2024-03-06T09:38:50;20.10;43.60
41644;DHT22;44236;48.098;11.582;2024-03-06T09:41:18;20.20;43.30
41644;DHT22;44236;48.098;11.582;2024-03-06T09:43:44;20.20;43.60
41644;DHT22;44236;48.098;11.582;2024-03-06T09:46:10;20.20;43.60
41644;DHT22;44236;48.098;11.582;2024-03-06T09:48:36;20.20;43.40
41644;DHT22;44236;48.098;11.582;2024-03-06T09:51:09;20.20;43.70
41644;DHT22;44236;48.098;11.582;2024-03-06T09:53:35;20.10;43.10
41644;DHT22;44236;48.098;11.582;2024-03-06T09:56:02;20.10;43.50
41644;DHT22;44236;48.098;11.582;2024-03-06T09:58:28;20.10;43.30
41644;DHT22;44236;48.098;11.582;2024-03-06T10:00:55;20.10;43.30
41644;DHT22;44236;48.098;11.582;2024-03-06T10:03:21;20.10;43.50
41644;DHT22;44236;48.098;11.582;2024-03-06T10:05:47;20.00;43.40
41644;DHT22;44236;48.098;11.582;2024-03-06T10:08:13;20.10;43.60
41644;DHT22;44236;48.098;11.582;2024-03-06T10:10:42;20.00;43.40
41644;DHT22;44236;48.098;11.582;2024-03-06T10:13:08;20.00;43.60
41644;DHT22;44236;48.098;11.582;2024-03-06T10:15:34;20.00;43.70
41644;DHT22;44236;48.098;11.582;2024-03-06T10:18:12;20.00;43.60
41644;DHT22;44236;48.098;11.582;2024-03-06T10:20:38;20.00;43.80
41644;DHT22;44236;48.098;11.582;2024-03-06T10:23:04;20.00;43.70
41644;DHT22;44236;48.098;11.582;2024-03-06T10:25:29;20.00;44.20
41644;DHT22;44236;48.098;11.582;2024-03-06T10:28:05;20.00;44.20
41644;DHT22;44236;48.098;11.582;2024-03-06T10:30:39;20.00;44.40
41644;DHT22;44236;48.098;11.582;2024-03-06T10:33:09;20.00;45.00
41644;DHT22;44236;48.098;11.582;2024-03-06T10:35:35;19.90;45.00
41644;DHT22;44236;48.098;11.582;2024-03-06T10:38:05;19.90;45.00
41644;DHT22;44236;48.098;11.582;2024-03-06T10:40:32;19.90;45.10
41644;DHT22;44236;48.098;11.582;2024-03-06T10:43:03;19.90;46.20
41644;DHT22;44236;48.098;11.582;2024-03-06T10:48:13;19.90;45.30
41644;DHT22;44236;48.098;11.582;2024-03-06T10:50:40;19.90;45.50
41644;DHT22;44236;48.098;11.582;2024-03-06T10:53:10;19.90;45.80
41644;DHT22;44236;48.098;11.582;2024-03-06T10:55:36;19.90;45.30
41644;DHT22;44236;48.098;11.582;2024-03-06T10:58:07;19.90;45.20
41644;DHT22;44236;48.098;11.582;2024-03-06T11:00:44;19.90;45.20
41644;DHT22;44236;48.098;11.582;2024-03-06T11:03:11;19.90;44.60
41644;DHT22;44236;48.098;11.582;2024-03-06T11:05:41;19.90;44.60
41644;DHT22;44236;48.098;11.582;2024-03-06T11:08:11;19.90;44.50
41644;DHT22;44236;48.098;11.582;2024-03-06T11:10:39;20.00;44.40
41644;DHT22;44236;48.098;11.582;2024-03-06T11:13:21;20.00;43.90
41644;DHT22;44236;48.098;11.582;2024-03-06T11:15:48;20.00;43.80
41644;DHT22;44236;48.098;11.582;2024-03-06T11:27:01;20.20;43.90
41644;DHT22;44236;48.098;11.582;2024-03-06T11:30:18;20.10;43.80
41644;DHT22;44236;48.098;11.582;2024-03-06T11:32:14;20.20;44.20
41644;DHT22;44236;48.098;11.582;2024-03-06T11:34:40;20.20;44.00
41644;DHT22;44236;48.098;11.582;2024-03-06T11:37:07;20.20;44.10
41644;DHT22;44236;48.098;11.582;2024-03-06T11:39:36;20.20;44.20
41644;DHT22;44236;48.098;11.582;2024-03-06T11:42:02;20.20;44.20
41644;DHT22;44236;48.098;11.582;2024-03-06T11:44:29;20.20;44.20
41644;DHT22;44236;48.098;11.582;2024-03-06T11:49:24;20.20;44.30
41644;DHT22;44236;48.098;11.582;2024-03-06T11:51:51;20.20;44.30
41644;DHT22;44236;48.098;11.582;2024-03-06T11:54:17;20.20;44.10
41644;DHT22;44236;48.098;11.582;2024-03-06T11:56:50;20.20;44.80
41644;DHT22;44236;48.098;11.582;2024-03-06T11:59:17;20.20;45.50
41644;DHT22;44236;48.098;11.582;2024-03-06T12:01:42;20.20;45.80
41644;DHT22;44236;48.098;11.582;2024-03-06T12:04:08;20.20;45.20
41644;DHT22;44236;48.098;11.582;2024-03-06T12:06:34;20.10;46.00
41644;DHT22;44236;48.098;11.582;2024-03-06T12:09:00;20.20;46.00
41644;DHT22;44236;48.098;11.582;2024-03-06T12:11:25;20.20;45.90
41644;DHT22;44236;48.098;11.582;2024-03-06T12:13:53;20.20;45.80
41644;DHT22;44236;48.098;11.582;2024-03-06T12:16:21;20.20;46.00
41644;DHT22;44236;48.098;11.582;2024-03-06T12:18:46;20.20;45.90
41644;DHT22;44236;48.098;11.582;2024-03-06T12:21:12;20.20;45.90
41644;DHT22;44236;48.098;11.582;2024-03-06T12:23:39;20.20;45.90
41644;DHT22;44236;48.098;11.582;2024-03-06T12:26:09;20.20;45.90
41644;DHT22;44236;48.098;11.582;2024-03-06T12:28:37;20.20;46.10
41644;DHT22;44236;48.098;11.582;2024-03-06T12:31:03;20.20;45.70
41644;DHT22;44236;48.098;11.582;2024-03-06T12:33:29;20.20;45.90
41644;DHT22;44236;48.098;11.582;2024-03-06T12:36:06;20.20;46.00
41644;DHT22;44236;48.098;11.582;2024-03-06T12:38:33;20.20;46.10
41644;DHT22;44236;48.098;11.582;2024-03-06T12:40:59;20.20;45.90
41644;DHT22;44236;48.098;11.582;2024-03-06T12:43:25;20.20;45.90
41644;DHT22;44236;48.098;11.582;2024-03-06T12:45:51;20.20;45.90
41644;DHT22;44236;48.098;11.582;2024-03-06T12:48:22;20.20;45.70
41644;DHT22;44236;48.098;11.582;2024-03-06T12:50:47;20.20;45.90
41644;DHT22;44236;48.098;11.582;2024-03-06T12:53:18;20.20;45.70
41644;DHT22;44236;48.098;11.582;2024-03-06T12:55:44;20.20;45.70
41644;DHT22;44236;48.098;11.582;2024-03-06T12:58:12;20.20;44.50
41644;DHT22;44236;48.098;11.582;2024-03-06T13:00:37;20.00;45.70
41644;DHT22;44236;48.098;11.582;2024-03-06T13:03:03;20.20;45.50
41644;DHT22;44236;48.098;11.582;2024-03-06T13:05:29;20.20;45.60
41644;DHT22;44236;48.098;11.582;2024-03-06T13:07:54;20.20;45.50
41644;DHT22;44236;48.098;11.582;2024-03-06T13:10:20;20.20;45.40
41644;DHT22;44236;48.098;11.582;2024-03-06T13:12:47;20.20;45.50
41644;DHT22;44236;48.098;11.582;2024-03-06T13:15:13;20.20;45.40
41644;DHT22;44236;48.098;11.582;2024-03-06T13:17:38;20.20;45.40
41644;DHT22;44236;48.098;11.582;2024-03-06T13:20:06;20.20;45.40
41644;DHT22;44236;48.098;11.582;2024-03-06T13:22:35;20.20;45.30
41644;DHT22;44236;48.098;11.582;2024-03-06T13:25:00;20.20;45.40
41644;DHT22;44236;48.098;11.582;2024-03-06T13:27:26;20.20;45.50
41644;DHT22;44236;48.098;11.582;2024-03-06T13:29:52;20.20;45.20
41644;DHT22;44236;48.098;11.582;2024-03-06T13:32:18;20.20;45.40
41644;DHT22;44236;48.098;11.582;2024-03-06T13:34:44;20.20;45.30
41644;DHT22;44236;48.098;11.582;2024-03-06T13:37:09;20.20;45.30
41644;DHT22;44236;48.098;11.582;2024-03-06T13:39:36;20.20;45.30
41644;DHT22;44236;48.098;11.582;2024-03-06T13:42:03;20.20;45.30
41644;DHT22;44236;48.098;11.582;2024-03-06T13:44:28;20.20;45.40
41644;DHT22;44236;48.098;11.582;2024-03-06T13:46:54;20.20;45.30
41644;DHT22;44236;48.098;11.582;2024-03-06T13:49:36;20.20;44.60
41644;DHT22;44236;48.098;11.582;2024-03-06T13:52:02;20.20;45.30
41644;DHT22;44236;48.098;11.582;2024-03-06T13:54:30;20.20;45.00
41644;DHT22;44236;48.098;11.582;2024-03-06T13:56:56;20.20;45.00
41644;DHT22;44236;48.098;11.582;2024-03-06T13:59:33;20.20;44.70
41644;DHT22;44236;48.098;11.582;2024-03-06T14:02:00;20.30;45.10
41644;DHT22;44236;48.098;11.582;2024-03-06T14:04:26;20.30;44.90
41644;DHT22;44236;48.098;11.582;2024-03-06T14:06:52;20.30;44.50
41644;DHT22;44236;48.098;11.582;2024-03-06T14:09:18;20.20;44.60
41644;DHT22;44236;48.098;11.582;2024-03-06T14:11:44;20.30;44.60
41644;DHT22;44236;48.098;11.582;2024-03-06T14:14:10;20.30;44.90
41644;DHT22;44236;48.098;11.582;2024-03-06T14:16:38;20.30;45.50
41644;DHT22;44236;48.098;11.582;2024-03-06T14:19:05;20.30;44.30
41644;DHT22;44236;48.098;11.582;2024-03-06T14:21:31;20.30;44.70
41644;DHT22;44236;48.098;11.582;2024-03-06T14:23:59;20.30;44.50
41644;DHT22;44236;48.098;11.582;2024-03-06T14:26:25;20.30;44.50
41644;DHT22;44236;48.098;11.582;2024-03-06T14:28:53;20.40;44.50
41644;DHT22;44236;48.098;11.582;2024-03-06T14:31:18;20.30;44.40
41644;DHT22;44236;48.098;11.582;2024-03-06T14:33:44;20.40;44.40
41644;DHT22;44236;48.098;11.582;2024-03-06T14:36:10;20.40;44.50
41644;DHT22;44236;48.098;11.582;2024-03-06T14:38:36;20.40;44.70
41644;DHT22;44236;48.098;11.582;2024-03-06T14:41:01;20.40;44.80
41644;DHT22;44236;48.098;11.582;2024-03-06T14:43:27;20.40;44.60
41644;DHT22;44236;48.098;11.582;2024-03-06T14:45:53;20.40;45.00
41644;DHT22;44236;48.098;11.582;2024-03-06T14:48:18;20.40;45.00
41644;DHT22;44236;48.098;11.582;2024-03-06T14:50:44;20.40;45.30
41644;DHT22;44236;48.098;11.582;2024-03-06T14:53:09;20.40;44.70
41644;DHT22;44236;48.098;11.582;2024-03-06T14:55:35;20.40;45.40
41644;DHT22;44236;48.098;11.582;2024-03-06T14:58:01;20.40;45.20
41644;DHT22;44236;48.098;11.582;2024-03-06T15:00:27;20.40;45.10
41644;DHT22;44236;48.098;11.582;2024-03-06T15:02:52;20.40;45.30
41644;DHT22;44236;48.098;11.582;2024-03-06T15:05:18;20.40;45.40
41644;DHT22;44236;48.098;11.582;2024-03-06T15:07:44;20.40;45.00
41644;DHT22;44236;48.098;11.582;2024-03-06T15:10:09;20.40;45.60
41644;DHT22;44236;48.098;11.582;2024-03-06T15:12:35;20.40;45.10
41644;DHT22;44236;48.098;11.582;2024-03-06T15:15:04;20.40;44.60
41644;DHT22;44236;48.098;11.582;2024-03-06T15:17:33;20.50;45.30
41644;DHT22;44236;48.098;11.582;2024-03-06T15:19:59;20.40;46.30
41644;DHT22;44236;48.098;11.582;2024-03-06T15:22:25;20.40;44.90
41644;DHT22;44236;48.098;11.582;2024-03-06T15:24:51;20.50;46.90